Time;durP1;ratioP1;P1;durP2;ratioP2;P2;SDS_P1;SDS_P2;PMS_P1;PMS_P2;Temp;Humidity;BMP_temperature;BMP_pressure;BME280_temperature;BME280_humidity;BME280_pressure;Samples;Min_cycle;Max_cycle;Signal;HPM_P1;HPM_P2
2022/05/23 00:02:08;;;;;;;6.43;2.40;;;16.90;91.80;;;;;;5029939;28;20104;-67
2022/05/23 00:04:34;;;;;;;4.38;1.88;;;16.90;91.90;;;;;;5029963;28;20052;-67
2022/05/23 00:07:00;;;;;;;5.28;1.83;;;16.90;91.80;;;;;;5029815;28;20034;-67
2022/05/23 00:09:26;;;;;;;5.63;1.70;;;16.80;92.00;;;;;;5029893;28;20418;-67
2022/05/23 00:11:52;;;;;;;7.18;2.17;;;16.90;92.00;;;;;;5029465;28;20068;-67
2022/05/23 00:14:18;;;;;;;6.57;2.20;;;16.80;92.10;;;;;;5020397;28;20478;-67
2022/05/23 00:16:47;;;;;;;5.38;1.70;;;16.80;92.20;;;;;;5030053;28;20034;-67
2022/05/23 00:19:14;;;;;;;6.25;2.42;;;16.70;92.40;;;;;;5029692;28;20045;-67
2022/05/23 00:21:42;;;;;;;7.30;2.67;;;16.90;92.50;;;;;;5030064;28;20075;-67
2022/05/23 00:24:09;;;;;;;7.05;2.50;;;16.70;92.60;;;;;;5029540;28;20053;-67
2022/05/23 00:26:36;;;;;;;6.50;1.88;;;16.70;92.70;;;;;;5029805;28;20087;-67
2022/05/23 00:29:03;;;;;;;6.07;2.08;;;16.70;92.70;;;;;;5029145;28;20467;-67
2022/05/23 00:31:28;;;;;;;5.95;2.50;;;16.60;92.90;;;;;;5029818;28;20048;-67
2022/05/23 00:36:38;;;;;;;4.53;2.38;;;16.50;92.10;;;;;;5029694;28;20449;-67
2022/05/23 00:39:05;;;;;;;7.43;2.50;;;16.60;93.00;;;;;;5029568;28;20048;-67
2022/05/23 00:44:24;;;;;;;8.43;2.67;;;16.60;93.10;;;;;;5009716;28;20505;-67
2022/05/23 00:46:57;;;;;;;5.28;2.67;;;18.10;94.00;;;;;;5008570;28;20336;-67
2022/05/23 00:49:29;;;;;;;5.38;2.58;;;16.50;93.80;;;;;;5009414;28;20045;-67
2022/05/23 00:51:58;;;;;;;7.00;3.00;;;16.40;93.70;;;;;;5009904;28;20037;-67
2022/05/23 00:54:27;;;;;;;8.38;2.60;;;16.40;93.70;;;;;;5009689;28;20040;-67
2022/05/23 00:56:53;;;;;;;5.60;3.00;;;16.30;93.70;;;;;;5009851;28;20018;-67
2022/05/23 00:59:25;;;;;;;5.32;2.25;;;16.30;93.70;;;;;;5009961;28;20450;-67
2022/05/23 01:01:51;;;;;;;7.07;3.17;;;16.30;94.00;;;;;;5008540;28;20030;-67
2022/05/23 01:04:17;;;;;;;7.85;3.05;;;16.20;93.60;;;;;;5012441;28;20036;-67
2022/05/23 01:06:43;;;;;;;10.55;3.22;;;16.30;93.90;;;;;;5013591;28;20077;-67
2022/05/23 01:09:10;;;;;;;5.53;1.98;;;16.30;93.80;;;;;;5013241;28;20073;-67
2022/05/23 01:11:36;;;;;;;9.13;2.92;;;16.30;93.80;;;;;;5012971;28;20069;-68
2022/05/23 01:14:01;;;;;;;9.70;2.80;;;16.20;93.70;;;;;;5029581;28;20061;-67
2022/05/23 01:16:27;;;;;;;4.50;2.28;;;16.20;93.80;;;;;;5032850;28;20030;-67
2022/05/23 01:18:53;;;;;;;5.18;2.92;;;16.20;93.80;;;;;;5023675;28;20046;-67
2022/05/23 01:21:41;;;;;;;5.18;2.90;;;16.30;93.90;;;;;;5012754;28;20107;-67
2022/05/23 01:24:22;;;;;;;4.20;2.30;;;16.30;93.70;;;;;;5012908;28;20022;-67
2022/05/23 01:26:49;;;;;;;3.35;1.55;;;16.20;93.50;;;;;;5012784;28;20022;-67
2022/05/23 01:29:15;;;;;;;5.60;3.15;;;16.20;94.10;;;;;;5012458;28;20026;-67
2022/05/23 01:31:42;;;;;;;5.50;2.60;;;15.90;94.20;;;;;;5013088;28;20045;-67
2022/05/23 01:34:08;;;;;;;4.70;2.53;;;16.10;94.20;;;;;;5012981;28;20026;-67
2022/05/23 01:36:33;;;;;;;7.10;2.67;;;16.10;94.10;;;;;;5012688;28;20483;-67
2022/05/23 01:38:59;;;;;;;8.25;3.67;;;16.10;94.30;;;;;;5012541;28;20483;-67
2022/05/23 01:41:25;;;;;;;5.30;2.92;;;16.20;94.50;;;;;;5012145;28;20026;-67
2022/05/23 01:43:51;;;;;;;7.55;3.35;;;16.00;94.70;;;;;;5028214;28;20109;-67
2022/05/23 01:46:16;;;;;;;5.28;2.88;;;16.00;94.70;;;;;;5030751;28;20429;-67
2022/05/23 01:48:42;;;;;;;7.57;3.03;;;16.00;94.80;;;;;;5032517;28;20029;-67
2022/05/23 01:51:07;;;;;;;9.57;2.83;;;16.00;94.80;;;;;;5032180;28;20076;-67
2022/05/23 01:53:33;;;;;;;9.38;2.42;;;15.90;94.90;;;;;;5032237;28;20042;-67
2022/05/23 01:56:03;;;;;;;11.68;4.68;;;16.00;95.10;;;;;;5031657;28;20057;-67
2022/05/23 02:01:13;;;;;;;6.68;2.88;;;15.80;94.90;;;;;;5032172;28;20059;-67
2022/05/23 02:03:39;;;;;;;3.78;3.03;;;15.80;95.50;;;;;;5032199;28;20037;-67
2022/05/23 02:06:05;;;;;;;5.55;2.80;;;15.70;95.50;;;;;;5031900;28;20030;-68
2022/05/23 02:08:30;;;;;;;7.88;2.80;;;15.80;95.60;;;;;;5031870;28;20036;-67
2022/05/23 02:10:55;;;;;;;5.90;2.22;;;15.70;95.60;;;;;;5029636;28;20131;-67
2022/05/23 02:13:21;;;;;;;4.78;2.53;;;15.60;95.70;;;;;;5031530;28;20037;-67
2022/05/23 02:15:46;;;;;;;7.32;2.88;;;15.60;95.80;;;;;;5031055;28;20034;-67
2022/05/23 02:18:12;;;;;;;5.05;2.80;;;15.60;95.90;;;;;;5031579;28;20071;-68
2022/05/23 02:20:37;;;;;;;3.85;2.00;;;15.60;96.00;;;;;;5031656;28;20067;-67
2022/05/23 02:23:03;;;;;;;4.47;2.65;;;15.60;96.00;;;;;;5031554;28;20491;-67
2022/05/23 02:25:29;;;;;;;4.07;2.58;;;15.60;96.00;;;;;;5031147;28;20025;-67
2022/05/23 02:27:56;;;;;;;7.05;2.78;;;15.50;96.10;;;;;;5031846;28;20438;-67
2022/05/23 02:30:22;;;;;;;5.30;3.00;;;15.40;96.20;;;;;;5031314;28;20410;-67
2022/05/23 02:32:48;;;;;;;5.10;2.35;;;15.50;96.30;;;;;;5031728;28;20026;-67
2022/05/23 02:35:15;;;;;;;5.22;2.58;;;15.50;96.20;;;;;;5031256;28;20025;-67
2022/05/23 02:37:41;;;;;;;6.40;2.65;;;15.40;96.70;;;;;;5031575;28;20100;-68
2022/05/23 02:40:08;;;;;;;6.97;3.33;;;15.40;96.50;;;;;;5026595;28;20034;-67
2022/05/23 02:42:34;;;;;;;11.90;3.80;;;15.50;96.50;;;;;;5028798;28;20564;-67
2022/05/23 02:44:59;;;;;;;6.03;3.40;;;15.20;96.80;;;;;;5013723;28;20030;-67
2022/05/23 02:47:25;;;;;;;9.98;3.83;;;15.30;96.90;;;;;;5011409;28;20486;-67
2022/05/23 02:49:51;;;;;;;7.50;3.97;;;15.30;97.10;;;;;;5011618;28;20034;-67
2022/05/23 02:52:16;;;;;;;5.80;3.45;;;15.20;97.30;;;;;;5010905;28;20058;-67
2022/05/23 02:54:42;;;;;;;5.38;3.20;;;15.40;97.30;;;;;;5011062;28;20106;-67
2022/05/23 02:57:07;;;;;;;6.50;3.05;;;13.60;96.90;;;;;;5011265;28;20036;-67
2022/05/23 02:59:33;;;;;;;6.88;3.05;;;15.20;97.50;;;;;;5011424;28;20045;-67
2022/05/23 03:04:43;;;;;;;4.78;3.58;;;15.20;97.10;;;;;;5011598;28;20125;-67
2022/05/23 03:07:09;;;;;;;5.55;3.03;;;15.20;97.80;;;;;;5011076;28;20045;-67
2022/05/23 03:09:35;;;;;;;9.30;3.75;;;15.20;97.90;;;;;;5010530;28;20038;-67
2022/05/23 03:12:00;;;;;;;4.95;2.97;;;15.20;98.00;;;;;;5028143;28;20506;-67
2022/05/23 03:14:27;;;;;;;5.15;2.85;;;15.20;98.10;;;;;;5030723;28;20087;-67
2022/05/23 03:16:52;;;;;;;5.78;3.15;;;15.20;98.20;;;;;;5021591;28;20022;-67
2022/05/23 03:19:18;;;;;;;7.95;4.25;;;15.20;98.20;;;;;;5011463;28;20037;-67
2022/05/23 03:27:12;;;;;;;;;;;15.20;97.80;;;;;;5010900;28;20467;-67
2022/05/23 03:29:37;;;;;;;5.45;3.60;;;15.20;99.20;;;;;;5009289;28;19905;-67
2022/05/23 03:32:03;;;;;;;7.30;3.53;;;15.20;98.60;;;;;;5010849;28;20033;-67
2022/05/23 03:34:29;;;;;;;9.35;4.35;;;15.20;98.70;;;;;;5010659;28;20029;-67
2022/05/23 03:36:54;;;;;;;5.68;3.58;;;15.10;98.90;;;;;;5025302;28;20116;-67
2022/05/23 03:39:20;;;;;;;9.43;4.82;;;15.10;99.00;;;;;;5029723;28;20430;-68
2022/05/23 03:41:45;;;;;;;7.03;3.88;;;15.10;99.00;;;;;;5030488;28;20053;-68
2022/05/23 03:44:11;;;;;;;7.28;4.18;;;15.10;99.00;;;;;;5030126;28;20021;-67
2022/05/23 03:46:37;;;;;;;10.48;4.18;;;15.00;99.10;;;;;;5030265;28;20477;-67
2022/05/23 03:49:03;;;;;;;8.85;4.30;;;15.20;99.30;;;;;;5029953;28;20036;-67
2022/05/23 03:51:29;;;;;;;11.70;4.45;;;15.10;99.40;;;;;;5029087;28;20363;-67
2022/05/23 03:53:55;;;;;;;9.45;4.10;;;15.20;99.40;;;;;;5029604;28;20030;-66
2022/05/23 03:56:21;;;;;;;7.15;3.88;;;15.10;99.70;;;;;;5027860;28;20071;-67
2022/05/23 03:58:46;;;;;;;10.77;4.63;;;15.20;99.50;;;;;;5029453;28;20029;-67
2022/05/23 04:01:15;;;;;;;6.43;4.55;;;15.10;99.60;;;;;;5030027;28;20030;-67
2022/05/23 04:03:41;;;;;;;4.45;3.78;;;15.10;99.90;;;;;;5030227;28;20040;-68
2022/05/23 04:06:07;;;;;;;8.05;4.13;;;15.10;99.70;;;;;;5022223;28;20014;-67
2022/05/23 04:08:33;;;;;;;9.00;4.53;;;15.10;99.70;;;;;;5009015;28;20030;-67
2022/05/23 04:10:59;;;;;;;10.20;4.82;;;15.10;99.70;;;;;;5010296;28;20459;-67
2022/05/23 04:13:26;;;;;;;6.97;3.58;;;15.20;99.80;;;;;;5010194;28;20034;-67
2022/05/23 04:15:52;;;;;;;5.90;4.45;;;15.20;99.80;;;;;;5010469;28;20060;-67
2022/05/23 04:18:17;;;;;;;7.10;4.35;;;15.20;99.80;;;;;;5009780;28;20050;-67
2022/05/23 04:20:44;;;;;;;10.45;5.03;;;15.20;99.70;;;;;;5009945;28;20504;-67
2022/05/23 04:23:10;;;;;;;8.23;5.63;;;15.20;99.80;;;;;;5010051;28;20033;-67
2022/05/23 04:25:43;;;;;;;5.10;4.05;;;15.30;99.80;;;;;;5010110;28;20034;-67
2022/05/23 04:28:09;;;;;;;6.43;4.38;;;15.30;99.40;;;;;;5009874;28;20026;-67
2022/05/23 04:30:35;;;;;;;6.88;5.60;;;15.20;99.90;;;;;;5010021;28;20046;-67
2022/05/23 04:35:48;;;;;;;9.32;4.45;;;15.30;99.90;;;;;;5017523;28;20116;-67
2022/05/23 04:38:14;;;;;;;5.28;4.78;;;15.20;99.90;;;;;;5029560;28;20070;-67
2022/05/23 04:40:40;;;;;;;11.15;6.18;;;15.30;99.90;;;;;;5033434;28;20041;-67
2022/05/23 04:43:05;;;;;;;7.32;5.03;;;15.30;99.90;;;;;;5033269;28;20017;-67
2022/05/23 04:45:31;;;;;;;7.63;5.00;;;15.30;99.90;;;;;;5033572;28;20028;-67
2022/05/23 04:50:41;;;;;;;;;;;15.40;99.40;;;;;;5033668;28;20037;-67
2022/05/23 04:53:06;;;;;;;9.55;5.90;;;15.40;99.90;;;;;;5033210;28;19905;-67
2022/05/23 04:55:33;;;;;;;7.97;5.97;;;15.50;99.90;;;;;;5033323;28;20038;-67
2022/05/23 04:57:59;;;;;;;8.20;4.93;;;15.60;99.90;;;;;;5033058;28;20022;-67
2022/05/23 05:00:26;;;;;;;6.55;5.72;;;15.60;99.90;;;;;;5032908;28;20029;-67
2022/05/23 05:02:52;;;;;;;7.35;4.85;;;15.70;99.90;;;;;;5033317;28;20025;-67
2022/05/23 05:05:18;;;;;;;6.90;5.22;;;15.70;99.90;;;;;;5028425;28;20025;-67
2022/05/23 05:07:44;;;;;;;6.35;5.75;;;15.80;99.90;;;;;;5028835;28;20033;-67
2022/05/23 05:10:10;;;;;;;9.48;5.10;;;15.70;99.80;;;;;;5013271;28;20037;-67
2022/05/23 05:12:36;;;;;;;7.45;6.38;;;15.80;99.70;;;;;;5013133;28;20061;-67
2022/05/23 05:15:02;;;;;;;6.85;5.47;;;15.90;99.70;;;;;;5013132;28;20056;-67
2022/05/23 05:17:27;;;;;;;11.52;7.28;;;16.00;99.70;;;;;;5029112;28;20038;-69
2022/05/23 05:19:53;;;;;;;9.57;8.38;;;15.90;99.70;;;;;;5047892;28;20502;-70
2022/05/23 05:22:19;;;;;;;7.80;6.55;;;15.90;99.70;;;;;;5032474;28;20025;-69
2022/05/23 05:24:45;;;;;;;8.10;6.70;;;16.00;99.70;;;;;;5031789;28;20033;-69
2022/05/23 05:27:11;;;;;;;11.35;7.50;;;16.00;99.60;;;;;;5032643;28;20025;-69
2022/05/23 05:29:37;;;;;;;10.18;7.57;;;16.00;99.70;;;;;;5018469;28;20080;-69
2022/05/23 05:32:26;;;;;;;8.63;7.50;;;16.10;99.70;;;;;;5012816;28;20026;-68
2022/05/23 05:34:55;;;;;;;9.90;8.13;;;16.10;99.90;;;;;;5018045;28;20475;-69
2022/05/23 05:37:30;;;;;;;13.57;7.97;;;16.20;99.90;;;;;;5012614;28;20033;-69
2022/05/23 05:39:57;;;;;;;9.90;7.38;;;16.30;99.90;;;;;;5012712;28;20030;-69
2022/05/23 05:42:27;;;;;;;9.43;8.45;;;16.40;99.70;;;;;;5012345;28;20057;-69
2022/05/23 05:44:59;;;;;;;8.75;7.68;;;16.50;99.70;;;;;;5012844;28;20057;-69
2022/05/23 05:47:25;;;;;;;7.95;6.28;;;16.60;99.60;;;;;;5012247;28;20402;-71
2022/05/23 05:49:55;;;;;;;8.57;6.63;;;16.50;99.20;;;;;;5013897;28;20029;-71
2022/05/23 05:52:25;;;;;;;9.30;6.50;;;16.80;99.20;;;;;;5027164;28;20037;-70
2022/05/23 05:54:52;;;;;;;8.70;7.40;;;17.00;99.00;;;;;;5011292;28;20026;-70
2022/05/23 05:57:18;;;;;;;7.28;6.18;;;17.10;98.70;;;;;;5018262;28;20030;-70
2022/05/23 05:59:43;;;;;;;10.48;8.57;;;17.10;98.40;;;;;;5032222;28;20040;-70
2022/05/23 06:02:09;;;;;;;7.47;6.03;;;17.10;98.30;;;;;;5030499;28;20036;-71
2022/05/23 06:04:35;;;;;;;9.88;8.27;;;17.20;98.40;;;;;;5030742;28;20434;-70
2022/05/23 06:12:30;;;;;;;;;;;17.40;97.50;;;;;;5032159;28;20091;-70
2022/05/23 06:14:57;;;;;;;8.20;6.40;;;17.30;98.80;;;;;;5029282;28;19961;-71
2022/05/23 06:17:23;;;;;;;10.77;7.88;;;17.40;98.10;;;;;;5030288;28;20017;-70
2022/05/23 06:19:48;;;;;;;12.45;7.82;;;17.50;98.20;;;;;;5031428;28;20053;-70
2022/05/23 06:22:16;;;;;;;9.95;6.88;;;17.50;98.10;;;;;;5030960;28;20048;-70
2022/05/23 06:24:42;;;;;;;10.25;8.98;;;17.60;98.30;;;;;;5031411;28;20044;-70
2022/05/23 06:27:08;;;;;;;9.60;6.60;;;17.60;98.10;;;;;;5031001;28;20026;-70
2022/05/23 06:29:35;;;;;;;12.85;8.05;;;17.70;98.10;;;;;;5031210;28;20030;-70
2022/05/23 06:32:02;;;;;;;10.35;7.78;;;17.80;98.10;;;;;;5030508;28;20025;-71
2022/05/23 06:34:28;;;;;;;9.25;7.72;;;17.90;98.00;;;;;;5031281;28;20025;-70
2022/05/23 06:36:55;;;;;;;11.43;8.10;;;17.90;97.90;;;;;;5031451;28;20033;-70
2022/05/23 06:39:21;;;;;;;14.10;8.85;;;17.80;98.00;;;;;;5030579;28;20052;-73
2022/05/23 06:41:47;;;;;;;13.95;9.35;;;17.80;97.60;;;;;;5030653;28;20031;-70
2022/05/23 06:44:13;;;;;;;11.60;9.23;;;18.00;97.60;;;;;;5027084;28;20049;-70
2022/05/23 06:46:39;;;;;;;12.85;8.20;;;18.00;97.50;;;;;;5010549;28;20456;-71
2022/05/23 06:49:06;;;;;;;11.82;8.98;;;18.10;97.50;;;;;;5016169;28;20461;-71
2022/05/23 06:51:33;;;;;;;8.15;6.90;;;18.30;97.60;;;;;;5026182;28;20018;-70
2022/05/23 06:53:59;;;;;;;14.07;8.35;;;18.20;97.40;;;;;;5030764;28;20021;-71
2022/05/23 06:56:24;;;;;;;7.55;6.20;;;18.40;97.50;;;;;;5030699;28;20029;-69
2022/05/23 06:58:50;;;;;;;13.63;7.63;;;18.50;97.30;;;;;;5027130;28;20045;-69
2022/05/23 07:01:16;;;;;;;13.40;9.70;;;18.50;97.10;;;;;;5027288;28;20041;-69
2022/05/23 07:03:41;;;;;;;11.95;8.48;;;18.70;97.00;;;;;;5030366;28;20029;-70
2022/05/23 07:14:20;;;;;;;;;;;19.00;96.00;;;;;;5029675;28;20036;-69
2022/05/23 07:16:46;;;;;;;9.75;6.32;;;19.10;97.10;;;;;;5027307;28;20308;-69
2022/05/23 07:19:11;;;;;;;13.05;7.78;;;19.20;96.40;;;;;;5029604;28;20068;-69
2022/05/23 07:21:37;;;;;;;8.73;5.80;;;19.20;96.00;;;;;;5030173;28;20030;-68
2022/05/23 07:24:02;;;;;;;8.30;6.07;;;19.30;96.00;;;;;;5030215;28;20029;-69
2022/05/23 07:26:28;;;;;;;8.05;6.25;;;20.00;96.20;;;;;;5030278;28;20017;-69
2022/05/23 07:28:55;;;;;;;9.30;6.22;;;19.40;95.80;;;;;;5029420;28;20504;-69
2022/05/23 07:31:20;;;;;;;11.20;7.13;;;19.50;95.20;;;;;;5027357;28;20057;-69
2022/05/23 07:33:46;;;;;;;9.48;6.50;;;19.60;95.30;;;;;;5029620;28;20057;-70
2022/05/23 07:36:12;;;;;;;9.55;6.10;;;19.70;95.30;;;;;;5029088;28;20018;-69
2022/05/23 07:38:38;;;;;;;6.85;5.38;;;17.80;94.40;;;;;;5029349;28;20025;-69
2022/05/23 07:41:06;;;;;;;10.23;5.55;;;19.90;94.80;;;;;;5030220;28;20029;-69
2022/05/23 07:43:35;;;;;;;12.85;5.43;;;20.00;94.50;;;;;;5029523;28;20476;-69
2022/05/23 07:46:08;;;;;;;5.72;5.13;;;20.10;94.30;;;;;;5029899;28;20034;-70
2022/05/23 07:48:34;;;;;;;7.07;5.30;;;20.10;94.30;;;;;;5030121;28;20099;-69
2022/05/23 07:50:59;;;;;;;8.38;5.28;;;20.20;93.90;;;;;;5029886;28;20021;-69
2022/05/23 08:01:37;;;;;;;7.28;5.32;;;20.30;93.00;;;;;;5029295;28;19911;-69
2022/05/23 08:04:03;;;;;;;7.35;5.03;;;20.60;93.20;;;;;;5029735;28;20421;-69
2022/05/23 08:06:28;;;;;;;9.95;5.93;;;20.60;93.00;;;;;;5029508;28;20029;-69
2022/05/23 08:08:54;;;;;;;7.22;6.57;;;20.70;92.70;;;;;;5029993;28;20030;-69
2022/05/23 08:11:19;;;;;;;6.38;4.95;;;20.80;92.40;;;;;;5029421;28;20053;-69
2022/05/23 08:13:47;;;;;;;8.40;6.03;;;20.80;92.20;;;;;;5031944;28;20033;-69
2022/05/23 08:16:13;;;;;;;6.82;5.03;;;20.90;92.20;;;;;;5033520;28;20390;-69
2022/05/23 08:18:38;;;;;;;6.57;4.47;;;21.10;92.30;;;;;;5032972;28;20026;-69
2022/05/23 08:21:04;;;;;;;5.85;4.03;;;21.30;92.10;;;;;;5033975;28;20036;-68
2022/05/23 08:23:30;;;;;;;6.30;4.97;;;21.60;92.20;;;;;;5033200;28;20100;-69
2022/05/23 08:25:56;;;;;;;7.68;5.30;;;21.70;91.50;;;;;;5047355;28;20033;-69
2022/05/23 08:28:22;;;;;;;8.02;4.88;;;21.70;91.20;;;;;;5031295;28;20060;-69
2022/05/23 08:30:47;;;;;;;7.18;5.78;;;21.80;91.10;;;;;;5025998;28;20054;-69
2022/05/23 08:33:13;;;;;;;8.13;5.10;;;22.00;90.90;;;;;;5031354;28;20041;-69
2022/05/23 08:35:39;;;;;;;8.80;5.18;;;22.20;90.60;;;;;;5033117;28;20096;-70
2022/05/23 08:38:05;;;;;;;9.70;5.30;;;22.20;90.30;;;;;;5033071;28;20104;-69
2022/05/23 08:40:53;;;;;;;13.25;5.20;;;22.40;90.10;;;;;;5032937;28;20116;-70
2022/05/23 08:43:34;;;;;;;9.38;4.32;;;22.60;89.10;;;;;;5027227;28;20033;-69
2022/05/23 08:46:01;;;;;;;7.88;5.50;;;22.60;89.00;;;;;;5032373;28;20024;-69
2022/05/23 08:48:42;;;;;;;9.05;5.65;;;22.60;90.00;;;;;;5031709;28;20025;-69
2022/05/23 08:51:18;;;;;;;9.35;4.47;;;22.60;88.40;;;;;;5032186;28;20018;-70
2022/05/23 08:53:55;;;;;;;9.73;5.43;;;22.40;90.10;;;;;;5032833;28;20463;-69
2022/05/23 08:56:26;;;;;;;8.57;5.05;;;22.60;88.50;;;;;;5031758;28;20470;-69
2022/05/23 08:59:00;;;;;;;6.57;3.97;;;22.50;90.00;;;;;;5032672;28;20039;-69
2022/05/23 09:01:49;;;;;;;6.32;4.35;;;22.70;90.20;;;;;;5033002;28;20029;-68
2022/05/23 09:04:37;;;;;;;6.72;4.20;;;22.80;88.60;;;;;;5032425;28;20490;-69
2022/05/23 09:07:06;;;;;;;6.35;3.67;;;22.80;90.20;;;;;;5032423;28;20040;-69
2022/05/23 09:09:34;;;;;;;7.75;3.78;;;22.80;90.00;;;;;;5032725;28;20095;-69
2022/05/23 09:12:10;;;;;;;9.13;4.63;;;22.80;89.70;;;;;;5032117;28;20041;-69
2022/05/23 09:14:35;;;;;;;6.28;3.08;;;23.10;88.80;;;;;;5032990;28;20026;-69
2022/05/23 09:17:02;;;;;;;6.70;4.10;;;22.80;88.60;;;;;;5032455;28;20043;-69
2022/05/23 09:19:34;;;;;;;6.38;4.65;;;22.90;88.80;;;;;;5014790;28;20049;-69
2022/05/23 09:22:24;;;;;;;3.53;2.97;;;22.70;89.50;;;;;;5032495;28;20079;-68
2022/05/23 09:24:55;;;;;;;5.85;3.75;;;23.80;90.20;;;;;;5032357;28;20029;-68
2022/05/23 09:27:31;;;;;;;6.43;3.80;;;24.20;90.10;;;;;;5031787;28;20475;-69
2022/05/23 09:29:58;;;;;;;6.13;3.35;;;22.90;88.20;;;;;;5029560;28;20021;-69
2022/05/23 09:32:34;;;;;;;3.78;3.13;;;22.90;89.30;;;;;;5023858;28;20065;-68
2022/05/23 09:35:03;;;;;;;6.00;3.70;;;23.20;87.20;;;;;;5027466;28;20033;-70
2022/05/23 09:37:39;;;;;;;8.77;4.00;;;23.20;88.00;;;;;;5028622;28;20026;-69
2022/05/23 09:40:08;;;;;;;11.93;4.40;;;23.40;86.70;;;;;;5010585;28;20041;-68
2022/05/23 09:48:15;;;;;;;6.50;4.32;;;23.60;86.10;;;;;;5012407;28;20118;-68
2022/05/23 09:50:43;;;;;;;5.70;2.95;;;23.70;84.10;;;;;;5018946;28;20033;-69
2022/05/23 09:53:28;;;;;;;7.13;3.03;;;23.60;84.30;;;;;;5019035;28;20308;-69
2022/05/23 09:56:14;;;;;;;6.22;3.50;;;23.60;83.20;;;;;;5014228;28;20033;-70
2022/05/23 09:58:40;;;;;;;3.38;2.83;;;23.60;83.60;;;;;;5031799;28;20048;-70
2022/05/23 10:01:08;;;;;;;6.72;3.50;;;24.50;84.70;;;;;;5031859;28;20037;-69
2022/05/23 10:03:34;;;;;;;3.78;3.13;;;23.30;84.60;;;;;;5031982;28;20022;-69
2022/05/23 10:06:11;;;;;;;6.32;3.67;;;23.20;84.90;;;;;;5031597;28;20368;-69
2022/05/23 10:08:39;;;;;;;5.57;3.30;;;23.20;84.00;;;;;;5025162;28;20426;-69
2022/05/23 10:11:20;;;;;;;5.32;3.05;;;22.80;86.20;;;;;;5030419;28;20073;-69
2022/05/23 10:14:01;;;;;;;4.45;2.72;;;23.10;84.50;;;;;;5032460;28;20048;-69
2022/05/23 10:16:52;;;;;;;6.63;4.18;;;23.10;84.90;;;;;;5027336;28;20418;-70
2022/05/23 10:19:33;;;;;;;13.60;5.20;;;23.10;85.20;;;;;;5013689;28;20540;-70
2022/05/23 10:22:22;;;;;;;7.78;5.28;;;23.00;87.30;;;;;;5018043;28;20029;-69
2022/05/23 10:24:59;;;;;;;5.68;3.55;;;23.00;87.60;;;;;;5028675;28;20025;-70
2022/05/23 10:27:51;;;;;;;5.15;4.13;;;23.10;86.50;;;;;;5029806;28;20068;-69
2022/05/23 10:30:20;;;;;;;6.60;3.47;;;23.30;84.00;;;;;;5028001;28;20498;-70
2022/05/23 10:32:54;;;;;;;8.27;4.65;;;23.50;85.50;;;;;;5025869;28;20091;-70
2022/05/23 10:35:22;;;;;;;7.82;4.20;;;23.40;85.60;;;;;;5030208;28;20606;-70
2022/05/23 10:37:50;;;;;;;7.18;4.72;;;23.20;85.20;;;;;;5030444;28;20490;-70
2022/05/23 10:43:07;;;;;;;5.22;3.53;;;23.50;84.80;;;;;;5026053;28;20029;-70
2022/05/23 10:45:51;;;;;;;5.82;3.17;;;23.50;83.30;;;;;;5027212;28;20021;-70
2022/05/23 10:48:32;;;;;;;7.88;4.22;;;23.70;85.20;;;;;;5028831;28;20021;-69
2022/05/23 10:51:09;;;;;;;4.78;3.20;;;23.90;83.00;;;;;;5029786;28;20045;-70
2022/05/23 10:54:10;;;;;;;3.58;3.28;;;24.00;82.50;;;;;;5029606;28;20037;-70
2022/05/23 10:57:04;;;;;;;5.63;4.15;;;23.90;83.10;;;;;;5030235;28;20026;-70
2022/05/23 10:59:45;;;;;;;8.50;4.13;;;23.90;82.60;;;;;;5028184;28;20029;-69
2022/05/23 11:02:25;;;;;;;5.40;3.15;;;23.70;84.30;;;;;;5030029;28;20393;-69
2022/05/23 11:05:22;;;;;;;6.65;4.47;;;23.70;82.10;;;;;;5030711;28;20025;-69
2022/05/23 11:08:22;;;;;;;7.32;5.82;;;23.50;83.60;;;;;;5030606;28;20108;-69
2022/05/23 11:10:55;;;;;;;8.90;4.35;;;23.60;83.70;;;;;;5030784;28;20029;-69
2022/05/23 11:13:39;;;;;;;8.93;5.63;;;23.30;82.80;;;;;;5030457;28;20069;-69
2022/05/23 11:16:04;;;;;;;;;;;23.40;83.10;;;;;;5030340;28;20026;-69
2022/05/23 11:18:45;;;;;;;8.00;5.75;;;23.60;86.10;;;;;;5029073;28;19996;-69
2022/05/23 11:21:15;;;;;;;6.90;5.03;;;23.80;83.80;;;;;;5029963;28;20030;-69
2022/05/23 11:23:56;;;;;;;6.18;4.43;;;24.00;84.70;;;;;;5030388;28;20034;-69
2022/05/23 11:26:29;;;;;;;5.30;4.80;;;24.30;81.80;;;;;;5029984;28;20025;-70
2022/05/23 11:34:37;;;;;;;8.00;5.63;;;25.00;80.50;;;;;;5029502;28;20399;-70
2022/05/23 11:37:42;;;;;;;8.05;5.35;;;24.90;83.00;;;;;;5028486;28;20091;-69
2022/05/23 11:40:06;;;;;;;7.15;4.53;;;24.80;82.60;;;;;;5030068;28;20128;-69
2022/05/23 11:42:42;;;;;;;8.25;5.32;;;24.70;81.60;;;;;;5029061;28;20049;-70
2022/05/23 11:47:57;;;;;;;5.85;3.40;;;24.20;81.30;;;;;;5029225;28;20060;-70
2022/05/23 11:50:30;;;;;;;6.05;5.03;;;26.40;85.10;;;;;;5028474;28;20482;-69
2022/05/23 11:53:21;;;;;;;5.25;3.50;;;24.40;82.00;;;;;;5029743;28;20049;-69
2022/05/23 11:55:50;;;;;;;6.50;2.72;;;24.30;82.80;;;;;;5029922;28;20060;-69
2022/05/23 11:58:21;;;;;;;4.75;3.97;;;24.40;83.80;;;;;;5028661;28;20104;-70
2022/05/23 12:01:04;;;;;;;5.80;3.63;;;24.40;80.90;;;;;;5044528;28;20029;-69
2022/05/23 12:03:48;;;;;;;5.50;3.47;;;24.50;82.40;;;;;;5014090;28;20025;-69
2022/05/23 12:06:35;;;;;;;6.25;2.78;;;24.50;82.50;;;;;;5009407;28;20487;-69
2022/05/23 12:09:23;;;;;;;4.65;2.63;;;24.50;81.50;;;;;;5009589;28;20048;-68
2022/05/23 12:12:13;;;;;;;5.57;3.10;;;24.70;81.80;;;;;;5027291;28;20049;-71
2022/05/23 12:14:38;;;;;;;5.95;3.28;;;24.90;80.90;;;;;;5029392;28;20037;-70
2022/05/23 12:17:11;;;;;;;8.95;5.95;;;22.80;78.70;;;;;;5026853;28;20112;-68
2022/05/23 12:19:39;;;;;;;9.30;6.03;;;24.90;80.60;;;;;;5013902;28;20459;-68
2022/05/23 12:22:58;;;;;;;10.98;7.57;;;25.00;80.60;;;;;;5029493;28;20014;-68
2022/05/23 12:25:26;;;;;;;6.95;4.10;;;25.10;79.50;;;;;;5029017;28;20255;-68
2022/05/23 12:27:52;;;;;;;8.45;5.60;;;25.10;79.90;;;;;;5045005;28;20017;-67
2022/05/23 12:30:17;;;;;;;6.80;5.90;;;25.20;78.80;;;;;;5026236;28;20025;-68
2022/05/23 12:32:47;;;;;;;8.05;4.40;;;25.20;78.40;;;;;;5009720;28;20044;-68
2022/05/23 12:35:15;;;;;;;5.63;3.33;;;25.20;78.40;;;;;;5007364;28;20040;-68
2022/05/23 12:38:10;;;;;;;3.95;3.05;;;25.40;78.30;;;;;;5013975;28;20028;-68
2022/05/23 12:41:03;;;;;;;5.22;3.88;;;25.70;79.20;;;;;;5027827;28;20053;-67
2022/05/23 12:44:14;;;;;;;8.63;4.00;;;25.60;76.70;;;;;;5028799;28;20055;-69
2022/05/23 12:46:52;;;;;;;5.97;3.60;;;25.60;77.90;;;;;;5028747;28;20033;-68
2022/05/23 12:49:27;;;;;;;5.05;2.60;;;25.80;80.20;;;;;;5027139;28;20033;-69
2022/05/23 12:52:22;;;;;;;6.65;2.78;;;25.50;78.90;;;;;;5041375;28;20509;-69
2022/05/23 12:55:25;;;;;;;8.55;3.72;;;25.50;78.80;;;;;;5028556;28;20022;-68
2022/05/23 12:58:27;;;;;;;5.68;3.47;;;25.40;79.40;;;;;;5026300;28;20030;-69
2022/05/23 13:00:59;;;;;;;9.70;3.72;;;25.00;79.80;;;;;;5019505;28;20045;-69
2022/05/23 13:03:38;;;;;;;4.68;2.67;;;24.90;80.90;;;;;;5031926;28;20021;-69
2022/05/23 13:06:16;;;;;;;5.15;2.25;;;24.80;78.60;;;;;;5029504;28;20029;-67
2022/05/23 13:08:51;;;;;;;4.60;2.92;;;24.60;81.90;;;;;;5032131;28;20140;-67
2022/05/23 13:11:44;;;;;;;6.80;3.53;;;24.50;81.60;;;;;;5031449;28;20049;-67
2022/05/23 13:14:10;;;;;;;4.05;2.45;;;24.50;81.80;;;;;;5025007;28;20544;-67
2022/05/23 13:16:38;;;;;;;2.42;1.95;;;24.40;81.00;;;;;;5032067;28;20025;-67
2022/05/23 13:22:05;;;;;;;4.55;1.83;;;24.30;82.80;;;;;;5029687;28;20117;-68
2022/05/23 13:27:26;;;;;;;5.05;2.20;;;24.20;82.90;;;;;;5031573;28;20083;-69
2022/05/23 13:30:00;;;;;;;5.82;2.47;;;23.90;83.80;;;;;;5031318;28;20045;-68
2022/05/23 13:32:27;;;;;;;5.07;2.58;;;24.00;82.70;;;;;;5026443;28;20034;-68
2022/05/23 13:34:54;;;;;;;3.63;2.28;;;23.80;84.20;;;;;;5025468;28;20028;-68
2022/05/23 13:37:37;;;;;;;5.85;3.00;;;24.60;85.20;;;;;;5031067;28;20022;-68
2022/05/23 13:40:14;;;;;;;3.90;2.08;;;23.80;85.40;;;;;;5030773;28;20044;-68
2022/05/23 13:42:40;;;;;;;2.45;1.95;;;23.80;83.80;;;;;;5030811;28;20091;-68
2022/05/23 13:45:16;;;;;;;4.07;2.60;;;23.80;85.90;;;;;;5030548;28;20474;-68
2022/05/23 13:47:50;;;;;;;4.43;3.03;;;23.60;85.40;;;;;;5029488;28;20080;-68
2022/05/23 13:50:24;;;;;;;5.03;2.13;;;23.70;88.10;;;;;;5031062;28;20108;-68
2022/05/23 13:53:00;;;;;;;4.32;2.10;;;23.60;88.70;;;;;;5030101;28;20848;-68
2022/05/23 13:55:30;;;;;;;3.00;1.75;;;23.50;89.20;;;;;;5030060;28;20549;-68
2022/05/23 13:58:03;;;;;;;4.13;2.17;;;23.20;89.50;;;;;;5031947;28;20025;-67
2022/05/23 14:00:40;;;;;;;4.25;2.42;;;23.80;90.30;;;;;;5027830;28;20482;-67
2022/05/23 14:03:15;;;;;;;5.40;3.60;;;23.20;90.90;;;;;;5031155;28;20117;-68
2022/05/23 14:05:48;;;;;;;5.55;2.47;;;23.10;91.60;;;;;;5030875;28;20104;-68
2022/05/23 14:08:33;;;;;;;3.75;3.00;;;22.90;92.10;;;;;;5030219;28;20060;-68
2022/05/23 14:11:01;;;;;;;2.55;2.35;;;23.10;92.60;;;;;;5030761;28;20033;-68
2022/05/23 14:13:32;;;;;;;3.83;2.53;;;23.10;92.40;;;;;;5030643;28;20033;-68